createdAt,value
2024-02-23T00:01:23.514Z,94810.47
2024-02-23T00:03:53.013Z,94833.34
2024-02-23T00:06:21.129Z,94867.84
2024-02-23T00:08:49.207Z,94870.78
2024-02-23T00:11:17.266Z,94872.84
2024-02-23T00:13:45.388Z,94879.66
2024-02-23T00:16:13.691Z,94878.06
2024-02-23T00:18:41.817Z,94889.34
2024-02-23T00:21:11.228Z,94903.94
2024-02-23T00:23:39.282Z,94878.34
2024-02-23T00:26:07.328Z,94887.84
2024-02-23T00:28:35.369Z,94903.25
2024-02-23T00:31:03.430Z,94909.16
2024-02-23T00:33:31.576Z,94919.28
2024-02-23T00:35:59.661Z,94931.56
2024-02-23T00:38:29.093Z,94935.34
2024-02-23T00:40:57.146Z,94942.63
2024-02-23T00:43:25.239Z,94946.97
2024-02-23T00:45:53.260Z,94957.59
2024-02-23T00:48:21.431Z,94958.63
2024-02-23T00:50:49.473Z,94965.25
2024-02-23T00:53:18.976Z,94987.13
2024-02-23T00:55:48.615Z,94990.66
2024-02-23T00:58:17.036Z,94976.56
2024-02-23T01:00:45.122Z,94987.53
2024-02-23T01:03:13.241Z,94990.34
2024-02-23T01:05:43.833Z,94992.00
2024-02-23T01:08:11.970Z,94991.16
2024-02-23T01:10:40.006Z,95007.94
2024-02-23T01:13:09.483Z,95004.78
2024-02-23T01:15:37.595Z,95011.75
2024-02-23T01:18:07.227Z,95010.44
2024-02-23T01:20:35.410Z,95011.06
2024-02-23T01:23:06.474Z,95017.72
2024-02-23T01:25:36.192Z,95018.06
2024-02-23T01:28:04.694Z,95021.69
2024-02-23T01:30:34.099Z,95027.06
2024-02-23T01:33:02.298Z,95021.06
2024-02-23T01:35:31.634Z,95021.22
2024-02-23T01:37:59.919Z,95021.38
2024-02-23T01:40:28.014Z,95018.91
2024-02-23T01:43:03.874Z,95027.84
2024-02-23T01:45:33.341Z,95026.38
2024-02-23T01:48:01.613Z,95024.34
2024-02-23T01:50:29.829Z,95043.63
2024-02-23T01:52:59.570Z,95023.22
2024-02-23T01:55:27.608Z,95026.38
2024-02-23T01:57:55.710Z,95031.28
2024-02-23T02:00:23.832Z,95029.53
2024-02-23T02:02:54.497Z,95041.47
2024-02-23T02:05:22.626Z,95038.47
2024-02-23T02:07:55.017Z,95051.59
2024-02-23T02:10:23.251Z,95047.13
2024-02-23T02:12:51.342Z,95047.47
2024-02-23T02:15:19.504Z,95053.41
2024-02-23T02:17:47.710Z,95051.25
2024-02-23T02:20:17.264Z,95046.28
2024-02-23T02:22:45.376Z,95054.34
2024-02-23T02:25:16.017Z,95061.38
2024-02-23T02:27:46.651Z,95064.25
2024-02-23T02:30:15.431Z,95070.84
2024-02-23T02:32:43.781Z,95062.22
2024-02-23T02:35:13.094Z,95072.75
2024-02-23T02:37:42.554Z,95060.88
2024-02-23T02:40:11.281Z,95068.38
2024-02-23T02:42:39.436Z,95083.22
2024-02-23T02:45:08.073Z,95086.50
2024-02-23T02:47:37.563Z,95071.94
2024-02-23T02:50:07.742Z,95085.06
2024-02-23T02:52:35.937Z,95078.25
2024-02-23T02:55:05.946Z,95091.81
2024-02-23T02:57:34.029Z,95094.34
2024-02-23T03:00:02.304Z,95102.50
2024-02-23T03:02:30.549Z,95098.66
2024-02-23T03:04:58.678Z,95108.69
2024-02-23T03:07:26.870Z,95110.78
2024-02-23T03:09:55.451Z,95104.63
2024-02-23T03:12:24.993Z,95109.75
2024-02-23T03:14:53.024Z,95113.00
2024-02-23T03:17:21.097Z,95114.38
2024-02-23T03:19:51.661Z,95117.91
2024-02-23T03:22:19.835Z,95119.69
2024-02-23T03:24:47.891Z,95122.84
2024-02-23T03:27:15.973Z,95123.34
2024-02-23T03:29:45.622Z,95130.00
2024-02-23T03:32:13.738Z,95127.16
2024-02-23T03:34:41.765Z,95128.44
2024-02-23T03:37:09.839Z,95125.00
2024-02-23T03:39:38.514Z,95130.03
2024-02-23T03:42:06.743Z,95140.97
2024-02-23T03:44:34.906Z,95136.19
2024-02-23T03:47:04.418Z,95131.94
2024-02-23T03:49:32.552Z,95138.94
2024-02-23T03:52:00.606Z,95151.19
2024-02-23T03:54:28.641Z,95145.97
2024-02-23T03:56:56.670Z,95147.75
2024-02-23T03:59:25.044Z,95145.56
2024-02-23T04:01:53.179Z,95151.44
2024-02-23T04:04:22.635Z,95159.66
2024-02-23T04:06:50.713Z,95155.81
2024-02-23T04:09:18.703Z,95153.06
2024-02-23T04:11:46.861Z,95157.97
2024-02-23T04:14:15.012Z,95165.34
2024-02-23T04:16:43.090Z,95162.22
2024-02-23T04:19:13.726Z,95163.56
2024-02-23T04:21:43.458Z,95170.59
2024-02-23T04:24:11.456Z,95163.34
2024-02-23T04:26:39.750Z,95176.34
2024-02-23T04:29:13.417Z,95162.94
2024-02-23T04:31:43.505Z,95163.03
2024-02-23T04:34:11.628Z,95166.66
2024-02-23T04:36:39.745Z,95170.78
2024-02-23T04:39:09.309Z,95164.88
2024-02-23T04:41:37.387Z,95180.22
2024-02-23T04:44:05.886Z,95173.66
2024-02-23T04:46:35.575Z,95171.03
2024-02-23T04:49:03.985Z,95175.25
2024-02-23T04:51:32.031Z,95177.63
2024-02-23T04:54:00.053Z,95172.84
2024-02-23T04:56:29.521Z,95172.31
2024-02-23T04:58:57.588Z,95178.59
2024-02-23T05:01:28.702Z,95171.31
2024-02-23T05:03:56.772Z,95167.47
2024-02-23T05:06:24.873Z,95180.25
2024-02-23T05:08:52.935Z,95174.09
2024-02-23T05:11:21.024Z,95171.75
2024-02-23T05:13:50.743Z,95176.22
2024-02-23T05:16:18.789Z,95170.63
2024-02-23T05:18:47.742Z,95168.78
2024-02-23T05:21:17.007Z,95169.34
2024-02-23T05:23:45.152Z,95170.00
2024-02-23T05:26:13.226Z,95173.75
2024-02-23T05:28:41.223Z,95170.78
2024-02-23T05:31:11.616Z,95157.94
2024-02-23T05:33:39.833Z,95175.63
2024-02-23T05:36:08.850Z,95166.63
2024-02-23T05:38:36.974Z,95177.13
2024-02-23T05:41:06.528Z,95168.44
2024-02-23T05:43:36.351Z,95165.31
2024-02-23T05:46:05.356Z,95163.47
2024-02-23T05:48:35.159Z,95173.91
2024-02-23T05:51:03.283Z,95158.00
2024-02-23T05:53:33.994Z,95163.06
2024-02-23T05:56:02.172Z,95160.66
2024-02-23T05:58:30.379Z,95159.63
2024-02-23T06:00:58.474Z,95157.34
2024-02-23T06:03:26.629Z,95152.97
2024-02-23T06:05:56.306Z,95161.69
2024-02-23T06:08:24.418Z,95168.47
2024-02-23T06:10:52.543Z,95159.81
2024-02-23T06:13:20.591Z,95164.50
2024-02-23T06:15:48.628Z,95167.56
2024-02-23T06:18:16.674Z,95177.56
2024-02-23T06:20:44.785Z,95168.78
2024-02-23T06:23:14.811Z,95175.81
2024-02-23T06:25:44.628Z,95168.59
2024-02-23T06:28:14.647Z,95156.47
2024-02-23T06:30:42.721Z,95161.66
2024-02-23T06:33:13.623Z,95153.09
2024-02-23T06:35:43.934Z,95154.66
2024-02-23T06:38:13.692Z,95149.94
2024-02-23T06:40:48.622Z,95163.59
2024-02-23T06:43:23.262Z,95153.56
2024-02-23T06:45:51.664Z,95165.19
2024-02-23T06:48:19.849Z,95168.59
2024-02-23T06:50:49.158Z,95162.03
2024-02-23T06:53:18.650Z,95166.97
2024-02-23T06:55:49.228Z,95162.13
2024-02-23T06:58:17.947Z,95153.75
2024-02-23T07:00:46.019Z,95154.69
2024-02-23T07:03:14.050Z,95156.00
2024-02-23T07:05:48.182Z,95151.47
2024-02-23T07:08:16.524Z,95156.56
2024-02-23T07:10:46.516Z,95158.13
2024-02-23T07:13:14.601Z,95158.34
2024-02-23T07:15:42.640Z,95153.56
2024-02-23T07:18:10.868Z,95161.56
2024-02-23T07:20:39.075Z,95149.13
2024-02-23T07:23:07.342Z,95139.81
2024-02-23T07:25:35.383Z,95148.66
2024-02-23T07:28:04.972Z,95151.47
2024-02-23T07:30:33.038Z,95151.84
2024-02-23T07:33:01.102Z,95154.84
2024-02-23T07:35:29.666Z,95154.91
2024-02-23T07:37:57.780Z,95163.50
2024-02-23T07:40:25.818Z,95149.97
2024-02-23T07:42:54.053Z,95164.53
2024-02-23T07:45:30.225Z,95168.34
2024-02-23T07:48:00.894Z,95166.31
2024-02-23T07:50:29.085Z,95155.72
2024-02-23T07:52:57.185Z,95159.88
2024-02-23T07:55:25.208Z,95166.22
2024-02-23T07:57:53.210Z,95167.31
2024-02-23T08:00:24.574Z,95177.66
2024-02-23T08:02:57.831Z,95179.97
2024-02-23T08:05:26.149Z,95191.44
2024-02-23T08:07:54.420Z,95194.72
2024-02-23T08:10:22.932Z,95202.22
2024-02-23T08:12:50.958Z,95203.44
2024-02-23T08:15:18.964Z,95208.13
2024-02-23T08:17:48.447Z,95202.50
2024-02-23T08:20:16.737Z,95199.91
2024-02-23T08:22:44.867Z,95211.19
2024-02-23T08:25:15.691Z,95213.13
2024-02-23T08:27:44.112Z,95200.38
2024-02-23T08:30:13.073Z,95199.53
2024-02-23T08:32:41.408Z,95202.25
2024-02-23T08:35:12.217Z,95203.38
2024-02-23T08:37:41.159Z,95200.94
2024-02-23T08:40:16.944Z,95197.91
2024-02-23T08:42:45.639Z,95203.13
2024-02-23T08:45:14.596Z,95204.16
2024-02-23T08:47:44.124Z,95200.13
2024-02-23T08:50:13.956Z,95194.84
2024-02-23T08:52:42.678Z,95199.81
2024-02-23T08:55:11.230Z,95197.81
2024-02-23T08:57:39.286Z,95194.81
2024-02-23T09:00:08.559Z,95192.16
2024-02-23T09:02:39.381Z,95204.78
2024-02-23T09:05:08.305Z,95200.97
2024-02-23T09:07:37.964Z,95199.28
2024-02-23T09:10:07.220Z,95201.78
2024-02-23T09:12:35.273Z,95204.16
2024-02-23T09:15:04.101Z,95203.16
2024-02-23T09:17:32.274Z,95201.19
2024-02-23T09:20:00.613Z,95215.47
2024-02-23T09:22:29.000Z,95210.66
2024-02-23T09:24:58.582Z,95204.81
2024-02-23T09:27:26.691Z,95205.66
2024-02-23T09:29:55.608Z,95196.69
2024-02-23T09:32:24.476Z,95194.03
2024-02-23T09:34:52.610Z,95212.50
2024-02-23T09:37:20.639Z,95216.16
2024-02-23T09:39:48.700Z,95216.81
2024-02-23T09:42:19.432Z,95221.78
2024-02-23T09:44:49.173Z,95219.47
2024-02-23T09:47:17.220Z,95211.66
2024-02-23T09:49:46.047Z,95206.00
2024-02-23T09:52:14.055Z,95205.81
2024-02-23T09:54:42.140Z,95205.50
2024-02-23T09:57:11.004Z,95207.66
2024-02-23T09:59:40.897Z,95218.97
2024-02-23T10:02:14.271Z,95221.97
2024-02-23T10:04:45.910Z,95229.44
2024-02-23T10:07:17.064Z,95226.47
2024-02-23T10:09:45.463Z,95219.16
2024-02-23T10:12:13.900Z,95222.16
2024-02-23T10:14:45.515Z,95208.50
2024-02-23T10:17:13.727Z,95215.66
2024-02-23T10:19:42.883Z,95205.50
2024-02-23T10:22:11.404Z,95216.16
2024-02-23T10:24:45.683Z,95218.81
2024-02-23T10:27:13.684Z,95215.50
2024-02-23T10:29:41.778Z,95227.28
2024-02-23T10:32:18.242Z,95226.78
2024-02-23T10:34:47.149Z,95228.28
2024-02-23T10:37:15.252Z,95232.59
2024-02-23T10:39:43.995Z,95229.94
2024-02-23T10:42:15.108Z,95238.09
2024-02-23T10:44:46.804Z,95228.28
2024-02-23T10:47:17.768Z,95221.72
2024-02-23T10:49:48.528Z,95229.72
2024-02-23T10:52:19.149Z,95235.19
2024-02-23T10:54:47.666Z,95241.25
2024-02-23T10:57:18.021Z,95225.72
2024-02-23T10:59:48.454Z,95226.03
2024-02-23T11:02:19.700Z,95226.72
2024-02-23T11:04:51.842Z,95232.59
2024-02-23T11:07:22.100Z,95224.75
2024-02-23T11:09:54.934Z,95226.81
2024-02-23T11:12:53.663Z,95228.66
2024-02-23T11:15:31.231Z,95232.78
2024-02-23T11:18:00.826Z,95226.56
2024-02-23T11:20:37.308Z,95227.38
2024-02-23T11:23:15.721Z,95216.09
2024-02-23T11:25:43.854Z,95212.88
2024-02-23T11:28:13.001Z,95210.63
2024-02-23T11:30:47.321Z,95216.78
2024-02-23T11:33:19.807Z,95206.88
2024-02-23T11:35:50.787Z,95216.78
2024-02-23T11:38:19.183Z,95210.56
2024-02-23T11:40:47.581Z,95213.84
2024-02-23T11:43:15.615Z,95217.22
2024-02-23T11:45:43.744Z,95205.88
2024-02-23T11:48:11.818Z,95205.66
2024-02-23T11:50:41.285Z,95213.06
2024-02-23T11:53:09.354Z,95208.44
2024-02-23T11:55:37.851Z,95206.41
2024-02-23T11:58:11.422Z,95206.50
2024-02-23T12:00:47.219Z,95219.28
2024-02-23T12:03:26.738Z,95209.13
2024-02-23T12:05:56.280Z,95216.66
2024-02-23T12:08:25.162Z,95213.22
2024-02-23T12:10:53.267Z,95216.34
2024-02-23T12:13:21.429Z,95211.34
2024-02-23T12:15:49.685Z,95223.13
2024-02-23T12:18:18.719Z,95218.06
2024-02-23T12:20:48.465Z,95223.25
2024-02-23T12:23:18.250Z,95215.94
2024-02-23T12:25:54.969Z,95223.25
2024-02-23T12:28:22.995Z,95218.16
2024-02-23T12:31:01.201Z,95218.31
2024-02-23T12:33:31.053Z,95217.44
2024-02-23T12:35:59.210Z,95211.22
2024-02-23T12:38:28.678Z,95209.84
2024-02-23T12:40:56.868Z,95213.63
2024-02-23T12:43:25.543Z,95213.50
2024-02-23T12:45:53.986Z,95210.66
2024-02-23T12:48:22.566Z,95211.63
2024-02-23T12:50:50.730Z,95220.50
2024-02-23T12:53:36.462Z,95213.72
2024-02-23T12:56:36.061Z,95222.28
2024-02-23T12:59:35.810Z,95213.34
2024-02-23T13:02:04.800Z,95219.00
2024-02-23T13:04:35.885Z,95212.38
2024-02-23T13:07:07.065Z,95208.16
2024-02-23T13:09:36.520Z,95212.84
2024-02-23T13:12:05.536Z,95211.34
2024-02-23T13:14:33.636Z,95213.03
2024-02-23T13:17:01.780Z,95216.06
2024-02-23T13:19:30.901Z,95219.91
2024-02-23T13:22:01.575Z,95210.13
2024-02-23T13:24:30.310Z,95220.06
2024-02-23T13:27:00.283Z,95213.81
2024-02-23T13:29:28.882Z,95211.56
2024-02-23T13:31:57.057Z,95213.09
2024-02-23T13:34:35.247Z,95217.00
2024-02-23T13:37:04.614Z,95209.84
2024-02-23T13:39:34.033Z,95208.00
2024-02-23T13:42:06.858Z,95211.41
2024-02-23T13:44:34.912Z,95215.00
2024-02-23T13:47:18.795Z,95213.09
2024-02-23T13:49:52.214Z,95211.88
2024-02-23T13:52:20.519Z,95212.69
2024-02-23T13:54:48.559Z,95219.69
2024-02-23T13:57:18.098Z,95213.94
2024-02-23T13:59:47.608Z,95223.91
2024-02-23T14:02:16.510Z,95222.44
2024-02-23T14:04:46.485Z,95229.00
2024-02-23T14:07:14.568Z,95230.28
2024-02-23T14:09:42.750Z,95232.84
2024-02-23T14:12:13.461Z,95231.56
2024-02-23T14:14:49.565Z,95226.69
2024-02-23T14:17:31.765Z,95220.34
2024-02-23T14:20:02.074Z,95224.44
2024-02-23T14:22:30.270Z,95216.00
2024-02-23T14:24:58.357Z,95222.94
2024-02-23T14:27:27.700Z,95222.72
2024-02-23T14:29:59.722Z,95224.09
2024-02-23T14:32:28.030Z,95226.88
2024-02-23T14:34:56.597Z,95216.84
2024-02-23T14:37:25.007Z,95227.97
2024-02-23T14:39:55.627Z,95221.00
2024-02-23T14:42:52.345Z,95224.19
2024-02-23T14:45:24.504Z,95233.38
2024-02-23T14:47:52.758Z,95234.63
2024-02-23T14:50:22.116Z,95233.34
2024-02-23T14:52:50.232Z,95234.75
2024-02-23T14:55:18.224Z,95235.34
2024-02-23T14:57:49.644Z,95234.63
2024-02-23T15:00:18.835Z,95240.78
2024-02-23T15:02:50.151Z,95236.56
2024-02-23T15:05:19.017Z,95236.56
2024-02-23T15:07:47.323Z,95237.69
2024-02-23T15:10:16.170Z,95246.53
2024-02-23T15:12:44.232Z,95238.72
2024-02-23T15:15:15.669Z,95242.47
2024-02-23T15:17:44.116Z,95239.41
2024-02-23T15:20:15.112Z,95231.28
2024-02-23T15:22:43.993Z,95234.13
2024-02-23T15:25:12.669Z,95237.56
2024-02-23T15:27:40.697Z,95230.63
2024-02-23T15:30:20.943Z,95232.69
2024-02-23T15:32:49.302Z,95232.84
2024-02-23T15:35:22.753Z,95229.03
2024-02-23T15:37:50.795Z,95238.53
2024-02-23T15:40:18.825Z,95240.97
2024-02-23T15:42:46.867Z,95227.91
2024-02-23T15:45:14.871Z,95248.94
2024-02-23T15:47:43.300Z,95244.44
2024-02-23T15:50:29.852Z,95245.97
2024-02-23T15:53:06.028Z,95253.00
2024-02-23T15:55:34.449Z,95257.66
2024-02-23T15:58:02.552Z,95262.88
2024-02-23T16:00:30.690Z,95258.53
2024-02-23T16:02:58.679Z,95263.84
2024-02-23T16:05:26.781Z,95258.66
2024-02-23T16:07:55.310Z,95258.16
2024-02-23T16:10:25.491Z,95259.53
2024-02-23T16:12:54.706Z,95257.72
2024-02-23T16:15:22.679Z,95259.38
2024-02-23T16:17:50.992Z,95260.94
2024-02-23T16:20:19.073Z,95252.59
2024-02-23T16:22:51.867Z,95261.19
2024-02-23T16:25:27.945Z,95254.28
2024-02-23T16:27:58.124Z,95247.63
2024-02-23T16:30:26.117Z,95264.47
2024-02-23T16:32:54.639Z,95259.44
2024-02-23T16:35:22.815Z,95261.94
2024-02-23T16:37:50.835Z,95258.41
2024-02-23T16:40:24.499Z,95259.44
2024-02-23T16:42:54.060Z,95265.97
2024-02-23T16:45:31.829Z,95270.13
2024-02-23T16:48:02.371Z,95269.78
2024-02-23T16:50:33.356Z,95272.44
2024-02-23T16:53:01.406Z,95278.31
2024-02-23T16:55:32.244Z,95272.97
2024-02-23T16:58:01.649Z,95280.31
2024-02-23T17:00:34.742Z,95275.66
2024-02-23T17:03:03.067Z,95283.66
2024-02-23T17:05:31.186Z,95291.66
2024-02-23T17:07:59.295Z,95296.50
2024-02-23T17:10:27.956Z,95285.66
2024-02-23T17:12:56.991Z,95291.00
2024-02-23T17:15:25.073Z,95294.31
2024-02-23T17:17:54.654Z,95294.16
2024-02-23T17:20:22.889Z,95292.16
2024-02-23T17:22:50.901Z,95297.34
2024-02-23T17:25:18.977Z,95302.00
2024-02-23T17:27:47.825Z,95294.50
2024-02-23T17:30:16.101Z,95294.66
2024-02-23T17:32:44.197Z,95299.47
2024-02-23T17:35:13.842Z,95293.47
2024-02-23T17:37:42.184Z,95304.28
2024-02-23T17:40:11.872Z,95302.81
2024-02-23T17:42:41.215Z,95304.81
2024-02-23T17:45:10.783Z,95311.47
2024-02-23T17:47:39.166Z,95310.97
2024-02-23T17:50:08.995Z,95307.63
2024-02-23T17:52:38.656Z,95303.31
2024-02-23T17:55:07.585Z,95310.13
2024-02-23T17:57:35.608Z,95308.47
2024-02-23T18:00:04.474Z,95316.81
2024-02-23T18:02:32.540Z,95316.63
2024-02-23T18:05:00.670Z,95315.28
2024-02-23T18:07:30.963Z,95311.81
2024-02-23T18:10:00.897Z,95314.16
2024-02-23T18:12:28.947Z,95323.63
2024-02-23T18:14:56.984Z,95328.63
2024-02-23T18:17:28.352Z,95324.94
2024-02-23T18:19:56.934Z,95327.28
2024-02-23T18:22:25.006Z,95322.47
2024-02-23T18:24:52.966Z,95330.94
2024-02-23T18:27:22.425Z,95344.75
2024-02-23T18:29:50.460Z,95346.91
2024-02-23T18:32:18.740Z,95340.75
2024-02-23T18:34:47.676Z,95336.25
2024-02-23T18:37:15.641Z,95332.59
2024-02-23T18:39:43.972Z,95329.59
2024-02-23T18:42:11.914Z,95330.94
2024-02-23T18:44:41.469Z,95341.19
2024-02-23T18:47:09.515Z,95333.19
2024-02-23T18:49:38.161Z,95342.19
2024-02-23T18:52:08.696Z,95332.22
2024-02-23T18:54:36.777Z,95342.38
2024-02-23T18:57:05.070Z,95344.81
2024-02-23T18:59:33.183Z,95347.03
2024-02-23T19:02:16.028Z,95342.53
2024-02-23T19:04:46.802Z,95343.66
2024-02-23T19:07:15.438Z,95345.47
2024-02-23T19:09:43.421Z,95347.00
2024-02-23T19:12:12.380Z,95356.44
2024-02-23T19:14:40.540Z,95343.19
2024-02-23T19:17:10.182Z,95344.50
2024-02-23T19:19:38.466Z,95345.34
2024-02-23T19:22:06.496Z,95341.81
2024-02-23T19:24:34.701Z,95344.78
2024-02-23T19:27:02.735Z,95351.59
2024-02-23T19:29:31.636Z,95352.47
2024-02-23T19:31:59.756Z,95346.28
2024-02-23T19:34:29.170Z,95353.91
2024-02-23T19:36:59.736Z,95352.03
2024-02-23T19:39:27.712Z,95363.53
2024-02-23T19:41:55.878Z,95366.47
2024-02-23T19:44:23.966Z,95376.38
2024-02-23T19:46:52.020Z,95376.75
2024-02-23T19:49:20.161Z,95381.94
2024-02-23T19:51:49.602Z,95385.81
2024-02-23T19:54:17.784Z,95384.34
2024-02-23T19:56:45.877Z,95393.69
2024-02-23T19:59:14.161Z,95400.97
2024-02-23T20:01:42.236Z,95410.13
2024-02-23T20:04:10.271Z,95409.06
2024-02-23T20:06:38.346Z,95414.34
2024-02-23T20:09:11.220Z,95409.03
2024-02-23T20:11:39.440Z,95412.53
2024-02-23T20:14:07.536Z,95414.84
2024-02-23T20:16:35.523Z,95412.28
2024-02-23T20:19:03.593Z,95414.66
2024-02-23T20:21:31.582Z,95403.41
2024-02-23T20:23:59.598Z,95400.50
2024-02-23T20:26:29.059Z,95398.94
2024-02-23T20:28:57.008Z,95403.84
2024-02-23T20:31:25.217Z,95391.28
2024-02-23T20:33:53.309Z,95393.38
2024-02-23T20:36:21.373Z,95387.28
2024-02-23T20:38:49.594Z,95395.81
2024-02-23T20:41:17.689Z,95401.38
2024-02-23T20:43:47.479Z,95399.03
2024-02-23T20:46:15.762Z,95388.81
2024-02-23T20:48:44.264Z,95401.75
2024-02-23T20:51:55.578Z,95403.84
2024-02-23T20:54:34.283Z,95412.41
2024-02-23T20:57:04.189Z,95407.44
2024-02-23T20:59:33.709Z,95408.84
2024-02-23T21:02:02.151Z,95412.81
2024-02-23T21:04:30.351Z,95411.78
2024-02-23T21:06:58.445Z,95414.31
2024-02-23T21:09:27.062Z,95408.84
2024-02-23T21:11:55.282Z,95423.22
2024-02-23T21:14:23.428Z,95425.00
2024-02-23T21:16:52.953Z,95426.88
2024-02-23T21:19:21.606Z,95425.09
2024-02-23T21:21:55.275Z,95431.56
2024-02-23T21:24:28.182Z,95425.16
2024-02-23T21:26:58.223Z,95421.31
2024-02-23T21:29:26.404Z,95434.94
2024-02-23T21:31:56.965Z,95428.75
2024-02-23T21:34:25.074Z,95422.59
2024-02-23T21:36:53.160Z,95421.56
2024-02-23T21:39:21.213Z,95433.97
2024-02-23T21:41:49.276Z,95430.16
2024-02-23T21:44:18.063Z,95431.25
2024-02-23T21:46:46.189Z,95431.72
2024-02-23T21:49:16.330Z,95434.75
2024-02-23T21:51:44.397Z,95426.25
2024-02-23T21:54:12.388Z,95431.34
2024-02-23T21:56:40.536Z,95428.25
2024-02-23T21:59:08.606Z,95430.25
2024-02-23T22:01:36.870Z,95431.75
2024-02-23T22:04:05.357Z,95429.34
2024-02-23T22:06:34.860Z,95433.56
2024-02-23T22:09:03.402Z,95423.59
2024-02-23T22:11:31.565Z,95428.44
2024-02-23T22:13:59.641Z,95418.59
2024-02-23T22:16:28.907Z,95419.59
2024-02-23T22:18:57.036Z,95414.03
2024-02-23T22:21:25.124Z,95412.59
2024-02-23T22:23:54.586Z,95424.16
2024-02-23T22:26:22.716Z,95428.16
2024-02-23T22:28:50.676Z,95420.66
2024-02-23T22:31:18.734Z,95418.66
2024-02-23T22:33:46.906Z,95419.78
2024-02-23T22:36:15.063Z,95429.34
2024-02-23T22:38:45.086Z,95425.00
2024-02-23T22:41:14.801Z,95419.97
2024-02-23T22:43:42.872Z,95416.69
2024-02-23T22:46:10.871Z,95410.28
2024-02-23T22:48:39.029Z,95415.94
2024-02-23T22:51:07.155Z,95415.22
2024-02-23T22:53:36.003Z,95423.88
2024-02-23T22:56:04.312Z,95419.88
2024-02-23T22:58:33.801Z,95418.84
2024-02-23T23:01:01.928Z,95416.09
2024-02-23T23:03:29.954Z,95417.91
2024-02-23T23:05:58.361Z,95408.38
2024-02-23T23:08:28.264Z,95419.00
2024-02-23T23:10:56.435Z,95404.13
2024-02-23T23:13:24.632Z,95408.75
2024-02-23T23:15:54.019Z,95409.13
2024-02-23T23:18:22.132Z,95416.03
2024-02-23T23:20:50.311Z,95419.47
2024-02-23T23:23:18.358Z,95424.41
2024-02-23T23:25:46.385Z,95421.44
2024-02-23T23:28:14.462Z,95421.31
2024-02-23T23:30:42.512Z,95425.09
2024-02-23T23:33:12.079Z,95432.75
2024-02-23T23:35:40.437Z,95436.06
2024-02-23T23:38:08.569Z,95439.50
2024-02-23T23:40:36.602Z,95443.31
2024-02-23T23:43:04.814Z,95448.94
2024-02-23T23:45:32.909Z,95444.59
2024-02-23T23:48:01.178Z,95443.59
2024-02-23T23:50:30.772Z,95440.03
2024-02-23T23:52:58.927Z,95442.00
2024-02-23T23:55:26.902Z,95433.88
2024-02-23T23:57:54.995Z,95445.84
